パゴパゴ の空港の天気 - METARとTAF

パゴパゴ国際空港 ( NSTU / PPG ) - アメリカ領サモア パゴパゴ
飛行場実況気象(Metar)
観測時間10/22 00:50 SST (10/22 11:50 UTC)
風向・風速南南東 5m/s
視程10km以上
天気現象
少しの雲 雲底高度 610m
全天の8割程度の雲 雲底高度 3050m
全天を覆う雲 雲底高度 6100m
気温27.8℃
湿度84%
気圧1012hPa
METARNSTU 221150Z 15009KT 10SM FEW020 BKN100 OVC200 28/25 A2989 RMK SLP120 60013 70015 8/118 T02780248 10281 20270 58007
過去の天気等 Google飛行場航空写真 Wunderground天気予報

過去48時間のMETAR

飛行場予報(TAF)
発表時間: 10/22 00:20 SST (10/22 11:20 UTC)
予報対象時間: 22日1時 SST ~ 23日1時 SST
風向・風速東南東 4m/s
視程10km以上
天気現象周辺でしゅう雨
全天の4割程度の雲 雲底高度 550m
全天の8割程度の雲 雲底高度 1220m
全天の8割程度の雲 雲底高度 3050m
22日14時 SST から
風向・風速東 6m/s
視程10km以上
少しの雲 雲底高度 610m
全天の4割程度の雲 雲底高度 1220m
全天の4割程度の雲 雲底高度 3050m
NSTU 221120Z 2212/2312 12008KT P6SM VCSH SCT018 BKN040 BKN100
FM230100 08012KT P6SM FEW020 SCT040 SCT100